createdAt,value
2019-05-07T00:00:55.406Z,63.89
2019-05-07T00:03:26.523Z,64.09
2019-05-07T00:05:57.624Z,64.56
2019-05-07T00:08:28.759Z,64.82
2019-05-07T00:11:02.322Z,65.07
2019-05-07T00:13:33.635Z,65.40
2019-05-07T00:16:05.737Z,65.51
2019-05-07T00:18:36.761Z,65.58
2019-05-07T00:21:07.839Z,65.78
2019-05-07T00:23:38.974Z,65.98
2019-05-07T00:26:10.066Z,65.94
2019-05-07T00:28:43.247Z,65.98
2019-05-07T00:31:14.800Z,66.04
2019-05-07T00:33:45.875Z,65.96
2019-05-07T00:36:23.170Z,65.86
2019-05-07T00:39:07.964Z,65.73
2019-05-07T00:41:43.691Z,65.69
2019-05-07T00:44:16.328Z,65.53
2019-05-07T00:46:49.000Z,65.38
2019-05-07T00:49:22.150Z,65.29
2019-05-07T00:51:53.332Z,65.39
2019-05-07T00:54:26.333Z,65.40
2019-05-07T00:56:57.466Z,65.55
2019-05-07T00:59:28.581Z,65.44
2019-05-07T01:02:01.740Z,65.56
2019-05-07T01:04:33.155Z,65.43
2019-05-07T01:07:04.634Z,65.44
2019-05-07T01:09:35.648Z,65.26
2019-05-07T01:12:06.900Z,65.03
2019-05-07T01:14:38.123Z,64.99
2019-05-07T01:17:09.216Z,65.02
2019-05-07T01:19:42.271Z,64.96
2019-05-07T01:22:13.192Z,64.89
2019-05-07T01:24:44.470Z,64.81
2019-05-07T01:27:15.542Z,64.74
2019-05-07T01:29:46.584Z,64.67
2019-05-07T01:32:22.994Z,64.63
2019-05-07T01:34:55.720Z,64.67
2019-05-07T01:37:28.332Z,64.68
2019-05-07T01:39:59.380Z,64.62
2019-05-07T01:42:32.573Z,64.61
2019-05-07T01:45:03.262Z,64.64
2019-05-07T01:47:39.812Z,64.68
2019-05-07T01:50:13.214Z,64.75
2019-05-07T01:52:43.747Z,64.89
2019-05-07T01:55:14.769Z,65.08
2019-05-07T01:57:45.974Z,65.09
2019-05-07T02:00:17.235Z,65.15
2019-05-07T02:02:52.028Z,65.19
2019-05-07T02:05:42.436Z,65.43
2019-05-07T02:08:24.436Z,65.47
2019-05-07T02:10:57.062Z,65.51
2019-05-07T02:13:28.127Z,65.55
2019-05-07T02:16:01.899Z,65.63
2019-05-07T02:18:32.934Z,65.70
2019-05-07T02:21:05.304Z,65.81
2019-05-07T02:23:37.844Z,66.05
2019-05-07T02:26:13.315Z,66.09
2019-05-07T02:28:46.192Z,66.32
2019-05-07T02:31:22.956Z,66.44
2019-05-07T02:33:54.144Z,66.50
2019-05-07T02:36:27.028Z,66.68
2019-05-07T02:39:15.836Z,66.88
2019-05-07T02:41:46.879Z,67.13
2019-05-07T02:44:18.041Z,67.52
2019-05-07T02:46:59.458Z,68.07
2019-05-07T02:49:32.810Z,68.03
2019-05-07T02:52:25.366Z,68.29
2019-05-07T02:55:03.897Z,68.53
2019-05-07T02:57:34.300Z,68.56
2019-05-07T03:00:08.505Z,69.06
2019-05-07T03:02:39.513Z,69.06
2019-05-07T03:05:13.780Z,68.77
2019-05-07T03:07:45.805Z,68.56
2019-05-07T03:10:16.938Z,68.56
2019-05-07T03:12:48.274Z,69.27
2019-05-07T03:15:19.476Z,69.27
2019-05-07T03:17:53.559Z,69.33
2019-05-07T03:20:33.382Z,70.06
2019-05-07T03:23:07.306Z,69.66
2019-05-07T03:25:54.139Z,69.66
2019-05-07T03:28:26.366Z,69.30
2019-05-07T03:31:05.928Z,69.58
2019-05-07T03:33:39.272Z,69.21
2019-05-07T03:36:16.861Z,69.22
2019-05-07T03:38:47.485Z,68.66
2019-05-07T03:41:22.738Z,68.55
2019-05-07T03:43:53.875Z,67.94
2019-05-07T03:46:26.497Z,67.62
2019-05-07T03:48:58.396Z,67.13
2019-05-07T03:51:32.778Z,66.68
2019-05-07T03:54:18.953Z,66.06
2019-05-07T03:56:37.224Z,65.33
2019-05-07T03:59:08.273Z,64.44
2019-05-07T04:01:43.072Z,63.61
2019-05-07T04:04:13.654Z,62.39
2019-05-07T04:06:46.362Z,61.34
2019-05-07T04:09:17.394Z,60.12
2019-05-07T04:11:48.458Z,58.80
2019-05-07T04:14:19.555Z,57.96
2019-05-07T04:16:53.571Z,56.66
2019-05-07T04:19:25.011Z,55.79
2019-05-07T04:21:57.167Z,54.67
2019-05-07T04:24:33.013Z,53.40
2019-05-07T04:27:07.483Z,52.82
2019-05-07T04:29:38.988Z,51.52
2019-05-07T04:32:14.129Z,50.57
2019-05-07T04:34:58.504Z,49.64
2019-05-07T04:37:29.690Z,48.94
2019-05-07T04:40:03.192Z,47.84
2019-05-07T04:42:34.568Z,47.00
2019-05-07T04:45:07.815Z,46.34
2019-05-07T04:47:44.255Z,45.68
2019-05-07T04:50:14.139Z,44.80
2019-05-07T04:52:46.195Z,44.40
2019-05-07T04:55:18.760Z,44.01
2019-05-07T04:57:53.072Z,43.46
2019-05-07T05:00:23.184Z,43.02
2019-05-07T05:02:56.614Z,42.71
2019-05-07T05:05:27.647Z,41.85
2019-05-07T05:07:59.601Z,41.43
2019-05-07T05:10:33.455Z,41.03
2019-05-07T05:13:03.495Z,40.74
2019-05-07T05:15:35.984Z,40.25
2019-05-07T05:18:07.164Z,39.87
2019-05-07T05:20:42.295Z,39.51
2019-05-07T05:23:18.344Z,39.09
2019-05-07T05:25:52.265Z,38.71
2019-05-07T05:28:24.006Z,38.69
2019-05-07T05:31:05.812Z,38.28
2019-05-07T05:33:35.623Z,38.72
2019-05-07T05:36:08.459Z,39.01
2019-05-07T05:38:42.336Z,39.20
2019-05-07T05:41:13.339Z,38.89
2019-05-07T05:44:02.455Z,38.33
2019-05-07T05:46:34.430Z,37.25
2019-05-07T05:49:05.530Z,37.20
2019-05-07T05:51:42.998Z,37.06
2019-05-07T05:54:32.821Z,36.66
2019-05-07T05:57:23.005Z,36.52
2019-05-07T05:59:55.918Z,36.89
2019-05-07T06:02:32.354Z,37.08
2019-05-07T06:05:06.704Z,36.94
2019-05-07T06:07:39.337Z,36.78
2019-05-07T06:10:29.495Z,36.84
2019-05-07T06:13:12.365Z,36.52
2019-05-07T06:16:00.314Z,36.47
2019-05-07T06:18:45.123Z,36.34
2019-05-07T06:21:20.475Z,36.17
2019-05-07T06:23:54.690Z,36.22
2019-05-07T06:26:27.366Z,36.18
2019-05-07T06:28:58.421Z,36.56
2019-05-07T06:31:29.577Z,36.75
2019-05-07T06:34:01.843Z,36.32
2019-05-07T06:36:34.670Z,36.10
2019-05-07T06:39:12.483Z,36.25
2019-05-07T06:42:02.057Z,36.46
2019-05-07T06:44:33.447Z,36.38
2019-05-07T06:47:04.532Z,36.33
2019-05-07T06:49:35.570Z,36.24
2019-05-07T06:52:07.613Z,35.45
2019-05-07T06:54:42.834Z,35.52
2019-05-07T06:57:14.571Z,35.49
2019-05-07T06:59:47.286Z,35.72
2019-05-07T07:02:22.991Z,36.00
2019-05-07T07:05:02.872Z,36.26
2019-05-07T07:07:42.220Z,36.21
2019-05-07T07:10:14.857Z,36.43
2019-05-07T07:12:49.005Z,36.34
2019-05-07T07:15:20.079Z,36.44
2019-05-07T07:17:52.410Z,36.65
2019-05-07T07:20:25.524Z,36.61
2019-05-07T07:22:57.135Z,36.09
2019-05-07T07:25:32.408Z,36.38
2019-05-07T07:28:03.116Z,36.19
2019-05-07T07:30:39.229Z,36.54
2019-05-07T07:33:12.221Z,37.23
2019-05-07T07:35:43.566Z,37.44
2019-05-07T07:38:33.208Z,37.89
2019-05-07T07:41:17.381Z,38.15
2019-05-07T07:43:48.797Z,38.09
2019-05-07T07:46:22.153Z,38.20
2019-05-07T07:49:06.891Z,37.28
2019-05-07T07:51:40.466Z,37.70
2019-05-07T07:54:02.442Z,38.05
2019-05-07T07:56:49.094Z,37.24
2019-05-07T07:59:32.840Z,37.20
2019-05-07T08:02:18.045Z,37.59
2019-05-07T08:04:52.639Z,37.99
2019-05-07T08:07:22.966Z,39.34
2019-05-07T08:09:59.452Z,41.14
2019-05-07T08:12:32.590Z,41.64
2019-05-07T08:15:17.364Z,42.54
2019-05-07T08:17:41.789Z,43.38
2019-05-07T08:20:13.318Z,42.81
2019-05-07T08:22:44.380Z,42.12
2019-05-07T08:25:15.543Z,41.68
2019-05-07T08:27:46.565Z,42.43
2019-05-07T08:30:22.236Z,43.09
2019-05-07T08:32:55.036Z,43.37
2019-05-07T08:35:32.565Z,43.49
2019-05-07T08:38:03.384Z,44.30
2019-05-07T08:40:34.512Z,44.41
2019-05-07T08:43:06.282Z,44.07
2019-05-07T08:45:52.417Z,43.36
2019-05-07T08:48:28.032Z,43.28
2019-05-07T08:50:59.136Z,42.59
2019-05-07T08:53:30.212Z,41.98
2019-05-07T08:56:03.303Z,41.53
2019-05-07T08:58:34.548Z,41.04
2019-05-07T09:01:06.697Z,39.95
2019-05-07T09:03:43.638Z,39.57
2019-05-07T09:06:15.174Z,38.82
2019-05-07T09:08:46.192Z,37.82
2019-05-07T09:11:20.300Z,37.23
2019-05-07T09:13:52.557Z,37.43
2019-05-07T09:16:24.559Z,38.32
2019-05-07T09:18:57.273Z,41.37
2019-05-07T09:21:28.468Z,42.80
2019-05-07T09:23:59.627Z,42.63
2019-05-07T09:26:32.450Z,42.20
2019-05-07T09:29:11.867Z,41.02
2019-05-07T09:31:52.564Z,40.32
2019-05-07T09:34:25.397Z,39.87
2019-05-07T09:37:02.380Z,40.25
2019-05-07T09:39:33.716Z,40.90
2019-05-07T09:42:04.882Z,41.12
2019-05-07T09:44:37.429Z,40.64
2019-05-07T09:47:12.916Z,40.45
2019-05-07T09:49:45.711Z,40.04
2019-05-07T09:52:17.667Z,39.68
2019-05-07T09:54:48.754Z,39.20
2019-05-07T09:57:29.382Z,38.58
2019-05-07T09:59:53.704Z,37.82
2019-05-07T10:02:24.859Z,37.47
2019-05-07T10:04:55.945Z,37.74
2019-05-07T10:07:27.016Z,38.18
2019-05-07T10:09:58.164Z,38.85
2019-05-07T10:12:37.080Z,39.90
2019-05-07T10:15:12.074Z,40.67
2019-05-07T10:17:54.380Z,40.85
2019-05-07T10:20:25.866Z,40.93
2019-05-07T10:23:02.278Z,40.26
2019-05-07T10:25:38.816Z,39.46
2019-05-07T10:28:10.020Z,38.71
2019-05-07T10:30:42.793Z,37.56
2019-05-07T10:33:14.784Z,39.77
2019-05-07T10:35:47.465Z,42.37
2019-05-07T10:38:19.343Z,44.24
2019-05-07T10:40:50.522Z,44.84
2019-05-07T10:43:22.331Z,45.78
2019-05-07T10:46:13.056Z,45.78
2019-05-07T10:48:49.490Z,44.90
2019-05-07T10:51:21.809Z,43.31
2019-05-07T10:53:53.070Z,42.66
2019-05-07T10:56:24.133Z,42.24
2019-05-07T10:58:55.244Z,41.42
2019-05-07T11:01:32.766Z,39.10
2019-05-07T11:04:04.538Z,37.80
2019-05-07T11:06:37.100Z,37.41
2019-05-07T11:09:10.628Z,37.80
2019-05-07T11:11:42.327Z,37.89
2019-05-07T11:14:16.500Z,37.95
2019-05-07T11:16:55.019Z,38.33
2019-05-07T11:19:27.466Z,38.85
2019-05-07T11:22:00.170Z,38.48
2019-05-07T11:24:32.073Z,38.59
2019-05-07T11:27:03.278Z,37.87
2019-05-07T11:29:36.557Z,38.41
2019-05-07T11:32:08.522Z,38.22
2019-05-07T11:34:42.268Z,38.02
2019-05-07T11:37:14.770Z,39.60
2019-05-07T11:39:47.348Z,40.80
2019-05-07T11:42:22.996Z,40.59
2019-05-07T11:44:54.981Z,40.77
2019-05-07T11:47:27.782Z,40.14
2019-05-07T11:50:16.522Z,39.08
2019-05-07T11:53:05.582Z,38.42
2019-05-07T11:55:36.662Z,38.35
2019-05-07T11:58:07.789Z,38.37
2019-05-07T12:00:43.956Z,37.74
2019-05-07T12:03:15.524Z,37.00
2019-05-07T12:05:46.616Z,36.95
2019-05-07T12:08:17.658Z,37.63
2019-05-07T12:10:48.761Z,37.34
2019-05-07T12:13:21.738Z,37.90
2019-05-07T12:15:52.608Z,37.20
2019-05-07T12:18:23.672Z,36.19
2019-05-07T12:20:56.591Z,36.08
2019-05-07T12:23:29.144Z,35.28
2019-05-07T12:26:02.166Z,35.26
2019-05-07T12:28:33.060Z,35.03
2019-05-07T12:31:08.821Z,35.18
2019-05-07T12:33:44.305Z,35.43
2019-05-07T12:36:16.926Z,35.49
2019-05-07T12:38:48.022Z,35.84
2019-05-07T12:41:33.748Z,36.19
2019-05-07T12:44:06.934Z,36.54
2019-05-07T12:46:38.210Z,36.05
2019-05-07T12:49:13.110Z,35.85
2019-05-07T12:51:58.334Z,35.81
2019-05-07T12:54:33.641Z,35.82
2019-05-07T12:57:05.382Z,35.66
2019-05-07T12:59:37.396Z,35.78
2019-05-07T13:02:26.977Z,36.05
2019-05-07T13:04:52.020Z,36.12
2019-05-07T13:07:23.464Z,35.92
2019-05-07T13:09:54.908Z,35.52
2019-05-07T13:12:25.981Z,35.86
2019-05-07T13:14:58.122Z,36.85
2019-05-07T13:17:33.808Z,35.69
2019-05-07T13:20:07.433Z,35.40
2019-05-07T13:22:43.925Z,35.11
2019-05-07T13:25:15.288Z,34.12
2019-05-07T13:27:46.348Z,34.18
2019-05-07T13:30:19.520Z,34.42
2019-05-07T13:32:52.635Z,34.16
2019-05-07T13:35:24.752Z,33.73
2019-05-07T13:38:01.318Z,33.46
2019-05-07T13:40:38.290Z,33.10
2019-05-07T13:43:11.876Z,32.75
2019-05-07T13:45:56.684Z,32.76
2019-05-07T13:48:28.262Z,33.53
2019-05-07T13:51:01.669Z,34.33
2019-05-07T13:53:35.026Z,34.76
2019-05-07T13:56:06.534Z,34.16
2019-05-07T13:58:49.864Z,34.06
2019-05-07T14:01:32.781Z,34.39
2019-05-07T14:04:14.192Z,33.15
2019-05-07T14:06:58.607Z,33.70
2019-05-07T14:09:27.230Z,34.23
2019-05-07T14:12:04.964Z,34.66
2019-05-07T14:14:36.782Z,34.86
2019-05-07T14:17:34.654Z,35.07
2019-05-07T14:19:43.954Z,35.12
2019-05-07T14:22:19.445Z,35.36
2019-05-07T14:25:01.425Z,35.56
2019-05-07T14:27:26.460Z,35.39
2019-05-07T14:30:02.682Z,35.13
2019-05-07T14:32:38.680Z,35.16
2019-05-07T14:35:19.024Z,35.35
2019-05-07T14:37:56.876Z,35.35
2019-05-07T14:40:32.360Z,35.12
2019-05-07T14:43:09.192Z,34.92
2019-05-07T14:45:45.643Z,35.10
2019-05-07T14:48:30.022Z,35.35
2019-05-07T14:51:02.464Z,35.18
2019-05-07T14:53:35.290Z,35.47
2019-05-07T14:56:14.271Z,35.70
2019-05-07T14:58:45.628Z,36.01
2019-05-07T15:01:22.283Z,36.63
2019-05-07T15:03:54.505Z,37.06
2019-05-07T15:06:26.032Z,37.29
2019-05-07T15:08:58.624Z,37.06
2019-05-07T15:11:31.801Z,36.79
2019-05-07T15:14:05.910Z,36.38
2019-05-07T15:16:39.295Z,35.79
2019-05-07T15:19:16.040Z,35.99
2019-05-07T15:21:51.793Z,35.64
2019-05-07T15:24:22.913Z,35.56
2019-05-07T15:26:58.142Z,35.39
2019-05-07T15:29:31.898Z,35.00
2019-05-07T15:32:06.340Z,35.06
2019-05-07T15:34:37.658Z,35.43
2019-05-07T15:37:12.121Z,35.66
2019-05-07T15:39:42.239Z,35.81
2019-05-07T15:42:14.586Z,36.12
2019-05-07T15:44:52.785Z,36.39
2019-05-07T15:47:28.781Z,36.39
2019-05-07T15:50:01.464Z,36.42
2019-05-07T15:52:58.108Z,36.69
2019-05-07T15:55:23.376Z,36.85
2019-05-07T15:57:56.098Z,37.04
2019-05-07T16:00:33.595Z,37.33
2019-05-07T16:03:08.151Z,37.60
2019-05-07T16:05:39.202Z,37.71
2019-05-07T16:08:12.442Z,37.61
2019-05-07T16:10:43.565Z,37.83
2019-05-07T16:13:17.127Z,38.05
2019-05-07T16:15:49.762Z,38.14
2019-05-07T16:18:28.560Z,38.14
2019-05-07T16:20:59.584Z,38.31
2019-05-07T16:23:32.584Z,38.24
2019-05-07T16:26:05.277Z,38.23
2019-05-07T16:28:37.096Z,38.42
2019-05-07T16:31:09.664Z,38.37
2019-05-07T16:33:42.934Z,38.22
2019-05-07T16:36:13.508Z,38.28
2019-05-07T16:38:47.636Z,38.01
2019-05-07T16:41:18.779Z,38.06
2019-05-07T16:43:52.973Z,37.96
2019-05-07T16:46:22.628Z,37.95
2019-05-07T16:48:55.009Z,37.92
2019-05-07T16:51:32.861Z,38.16
2019-05-07T16:54:03.516Z,38.26
2019-05-07T16:56:36.531Z,38.40
2019-05-07T16:59:12.385Z,38.51
2019-05-07T17:01:46.416Z,38.50
2019-05-07T17:04:19.936Z,38.47
2019-05-07T17:06:51.893Z,38.40
2019-05-07T17:09:35.245Z,38.48
2019-05-07T17:12:09.105Z,38.70
2019-05-07T17:14:42.577Z,39.02
2019-05-07T17:17:18.684Z,39.18
2019-05-07T17:19:53.954Z,39.15
2019-05-07T17:22:27.171Z,39.34
2019-05-07T17:25:52.720Z,39.49
2019-05-07T17:28:31.885Z,39.74
2019-05-07T17:31:08.043Z,39.91
2019-05-07T17:33:47.608Z,40.16
2019-05-07T17:36:22.454Z,40.40
2019-05-07T17:38:55.186Z,40.57
2019-05-07T17:41:27.381Z,40.56
2019-05-07T17:43:59.549Z,40.51
2019-05-07T17:46:32.417Z,40.50
2019-05-07T17:49:09.089Z,40.66
2019-05-07T17:51:42.377Z,40.91
2019-05-07T17:54:14.264Z,40.95
2019-05-07T17:56:47.719Z,41.13
2019-05-07T17:59:18.841Z,41.78
2019-05-07T18:02:02.401Z,41.94
2019-05-07T18:04:47.643Z,42.26
2019-05-07T18:07:08.639Z,42.64
2019-05-07T18:09:42.249Z,42.89
2019-05-07T18:12:13.004Z,43.06
2019-05-07T18:14:44.248Z,43.29
2019-05-07T18:17:18.644Z,43.44
2019-05-07T18:19:50.053Z,43.63
2019-05-07T18:22:22.147Z,43.73
2019-05-07T18:24:53.615Z,43.63
2019-05-07T18:27:26.314Z,43.67
2019-05-07T18:29:59.061Z,43.64
2019-05-07T18:32:32.779Z,43.74
2019-05-07T18:35:05.254Z,43.88
2019-05-07T18:37:41.788Z,44.01
2019-05-07T18:40:15.814Z,44.14
2019-05-07T18:42:46.289Z,44.25
2019-05-07T18:45:17.610Z,44.44
2019-05-07T18:47:48.783Z,44.62
2019-05-07T18:50:22.601Z,44.78
2019-05-07T18:52:53.881Z,44.98
2019-05-07T18:55:25.168Z,45.14
2019-05-07T18:57:58.007Z,45.12
2019-05-07T19:00:38.507Z,45.26
2019-05-07T19:03:10.733Z,45.42
2019-05-07T19:05:42.485Z,45.59
2019-05-07T19:08:13.661Z,46.00
2019-05-07T19:10:44.803Z,46.41
2019-05-07T19:13:17.692Z,46.56
2019-05-07T19:15:48.820Z,46.82
2019-05-07T19:18:22.762Z,47.05
2019-05-07T19:20:54.211Z,47.47
2019-05-07T19:23:28.601Z,47.75
2019-05-07T19:25:59.800Z,48.05
2019-05-07T19:28:32.900Z,48.18
2019-05-07T19:31:05.583Z,48.35
2019-05-07T19:33:38.514Z,48.60
2019-05-07T19:36:16.906Z,48.91
2019-05-07T19:38:47.740Z,49.13
2019-05-07T19:41:20.453Z,49.34
2019-05-07T19:43:54.179Z,49.46
2019-05-07T19:46:28.558Z,49.72
2019-05-07T19:49:07.126Z,50.08
2019-05-07T19:51:38.699Z,50.21
2019-05-07T19:54:09.957Z,50.35
2019-05-07T19:56:42.609Z,50.62
2019-05-07T19:59:15.319Z,50.98
2019-05-07T20:01:48.190Z,51.29
2019-05-07T20:04:22.297Z,51.53
2019-05-07T20:06:55.269Z,51.84
2019-05-07T20:09:28.166Z,52.11
2019-05-07T20:11:59.456Z,52.44
2019-05-07T20:14:33.098Z,52.63
2019-05-07T20:17:05.669Z,52.85
2019-05-07T20:19:39.248Z,53.10
2019-05-07T20:22:15.233Z,53.23
2019-05-07T20:24:54.256Z,53.47
2019-05-07T20:27:25.643Z,53.57
2019-05-07T20:29:58.507Z,53.72
2019-05-07T20:32:34.463Z,53.93
2019-05-07T20:35:10.576Z,54.04
2019-05-07T20:37:42.098Z,54.11
2019-05-07T20:40:18.015Z,54.30
2019-05-07T20:42:49.488Z,54.45
2019-05-07T20:45:23.858Z,54.65
2019-05-07T20:47:55.240Z,54.84
2019-05-07T20:50:38.402Z,54.95
2019-05-07T20:53:12.895Z,55.10
2019-05-07T20:55:50.518Z,55.21
2019-05-07T20:58:23.261Z,55.42
2019-05-07T21:01:06.463Z,55.48
2019-05-07T21:03:34.501Z,55.71
2019-05-07T21:06:12.979Z,55.93
2019-05-07T21:08:45.741Z,56.08
2019-05-07T21:11:32.228Z,56.80
2019-05-07T21:13:59.291Z,56.79
2019-05-07T21:16:52.426Z,56.91
2019-05-07T21:19:22.149Z,57.20
2019-05-07T21:22:08.100Z,56.96
2019-05-07T21:57:28.142Z,57.76
2019-05-07T22:00:02.151Z,57.68
2019-05-07T22:14:32.777Z,58.17
2019-05-07T22:27:27.746Z,58.91
2019-05-07T22:31:46.721Z,58.84
2019-05-07T22:32:58.859Z,59.01
2019-05-07T22:41:14.404Z,59.41
2019-05-07T22:44:09.112Z,59.35
2019-05-07T22:56:52.973Z,59.82
2019-05-07T23:00:56.774Z,59.74
2019-05-07T23:03:44.456Z,59.71
2019-05-07T23:06:27.244Z,59.82
2019-05-07T23:15:27.782Z,59.99
2019-05-07T23:20:33.500Z,60.24
2019-05-07T23:28:27.274Z,60.31
2019-05-07T23:32:32.936Z,60.30
2019-05-07T23:33:38.254Z,60.44
2019-05-07T23:41:45.945Z,60.89
2019-05-07T23:45:58.964Z,60.89
2019-05-07T23:46:57.945Z,60.88
2019-05-07T23:52:15.508Z,60.97
2019-05-07T23:55:16.203Z,61.07
2019-05-07T23:58:29.507Z,61.16
